CheckWX is a tool to help pilots better visualize weather data.  It is not intended as a substitute for an official pre-flight weather briefing.

10:56:03 UTC

5R8 METAR
De Quincy Industrial Airpark
De Quincy, Louisiana, USA
Current

21 mins ago

K5R8 261035Z AUTO 35004KT 10SM CLR 12/09 A3022 RMK AO2 T01160085
Observed
Mar-26 @ 10:35 UTC
Wind
  • 350° at 4 KTS
Visibility
10 SM
Flight Rules
VFR
Cloud Levels
  • Clear skies
Temperature
12°C / 54°F
Dewpoint
C / 48°F
Humidity
82%
Altimeter
30.22" Hg
Pressure
1023.42 hPa
Previous

41 mins ago

K5R8 261015Z AUTO 35003KT 10SM CLR 12/09 A3022 RMK AO2 T01190086
Observed
Mar-26 @ 10:15 UTC
Wind
  • 350° at 3 KTS
Visibility
10 SM
Flight Rules
VFR
Cloud Levels
  • Clear skies
Temperature
12°C / 54°F
Dewpoint
C / 48°F
Humidity
82%
Altimeter
30.22" Hg
Pressure
1023.42 hPa
Previous

56 mins ago

K5R8 261000Z AUTO 35004KT 10SM CLR 12/09 A3021 RMK AO2 T01200087
Observed
Mar-26 @ 10:00 UTC
Wind
  • 350° at 4 KTS
Visibility
10 SM
Flight Rules
VFR
Cloud Levels
  • Clear skies
Temperature
12°C / 54°F
Dewpoint
C / 48°F
Humidity
82%
Altimeter
30.21" Hg
Pressure
1023.02 hPa